Time;durP1;ratioP1;P1;durP2;ratioP2;P2;SDS_P1;SDS_P2;PMS_P1;PMS_P2;Temp;Humidity;BMP_temperature;BMP_pressure;BME280_temperature;BME280_humidity;BME280_pressure;Samples;Min_cycle;Max_cycle;Signal;HPM_P1;HPM_P2
2022/09/13 00:00:56;;;;;;;6.40;5.13;;;16.80;99.90;;;;;;5117130;27;20108;-64
2022/09/13 00:03:22;;;;;;;8.57;5.50;;;16.80;99.90;;;;;;5111675;28;20410;-64
2022/09/13 00:05:48;;;;;;;7.75;5.57;;;16.80;99.90;;;;;;5113543;28;20032;-65
2022/09/13 00:08:15;;;;;;;9.52;5.63;;;16.80;99.90;;;;;;5108493;28;20066;-65
2022/09/13 00:10:42;;;;;;;7.68;5.55;;;16.80;99.90;;;;;;5107309;28;20043;-66
2022/09/13 00:13:10;;;;;;;6.47;5.50;;;16.80;99.90;;;;;;5105664;28;20081;-66
2022/09/13 00:15:40;;;;;;;10.13;6.63;;;16.80;99.90;;;;;;5108027;28;20035;-65
2022/09/13 00:18:06;;;;;;;7.50;6.45;;;16.70;99.90;;;;;;5115145;28;20055;-66
2022/09/13 00:20:32;;;;;;;8.70;7.25;;;16.70;99.90;;;;;;5106945;28;20031;-65
2022/09/13 00:22:57;;;;;;;8.02;7.22;;;16.70;99.90;;;;;;5126412;28;20437;-65
2022/09/13 00:25:23;;;;;;;7.97;6.97;;;16.70;99.90;;;;;;5107056;28;20043;-64
2022/09/13 00:27:49;;;;;;;10.50;7.78;;;16.80;99.90;;;;;;5108715;28;20031;-66
2022/09/13 00:30:15;;;;;;;8.40;7.60;;;16.80;99.90;;;;;;5106167;28;20044;-65
2022/09/13 00:32:40;;;;;;;8.85;7.57;;;16.80;99.90;;;;;;5112899;28;20442;-66
2022/09/13 00:35:07;;;;;;;10.50;8.55;;;16.80;99.90;;;;;;5112323;28;20043;-66
2022/09/13 00:37:33;;;;;;;10.35;8.75;;;16.80;99.90;;;;;;5111799;28;20059;-65
2022/09/13 00:39:59;;;;;;;10.63;9.50;;;16.80;99.90;;;;;;5114536;27;20082;-65
2022/09/13 00:42:31;;;;;;;12.05;9.20;;;16.80;99.90;;;;;;5118719;27;20123;-64
2022/09/13 00:45:09;;;;;;;11.32;9.55;;;16.80;99.90;;;;;;5112987;27;20112;-65
2022/09/13 00:47:46;;;;;;;12.52;10.32;;;16.80;99.90;;;;;;5117241;27;20063;-65
2022/09/13 00:50:18;;;;;;;11.57;10.18;;;16.80;99.90;;;;;;5113390;27;20081;-65
2022/09/13 00:52:46;;;;;;;12.13;10.93;;;16.80;99.90;;;;;;5110019;28;20040;-66
2022/09/13 00:55:28;;;;;;;11.55;10.35;;;16.80;99.90;;;;;;5126953;27;20063;-66
2022/09/13 00:57:57;;;;;;;12.57;9.18;;;16.80;99.90;;;;;;5110619;28;20044;-66
2022/09/13 01:00:23;;;;;;;11.90;10.00;;;16.80;99.90;;;;;;5109891;28;20047;-64
2022/09/13 01:02:54;;;;;;;11.85;10.27;;;16.80;99.90;;;;;;5109960;28;20047;-65
2022/09/13 01:05:23;;;;;;;12.57;10.80;;;16.80;99.90;;;;;;5109798;27;20095;-64
2022/09/13 01:07:50;;;;;;;12.63;10.73;;;16.80;99.90;;;;;;5109300;28;20489;-65
2022/09/13 01:10:16;;;;;;;11.68;10.43;;;16.80;99.90;;;;;;5112062;27;20047;-65
2022/09/13 01:13:11;;;;;;;11.63;10.43;;;16.80;99.90;;;;;;5099618;28;20075;-65
2022/09/13 01:15:37;;;;;;;14.63;11.80;;;16.80;99.90;;;;;;5102899;27;20055;-64
2022/09/13 01:18:04;;;;;;;15.40;12.75;;;16.80;99.90;;;;;;5114958;27;20032;-66
2022/09/13 01:20:56;;;;;;;14.90;12.70;;;16.80;99.90;;;;;;5111486;28;20056;-64
2022/09/13 01:23:33;;;;;;;13.40;11.80;;;16.90;99.90;;;;;;5011079;28;20049;-65
2022/09/13 01:26:30;;;;;;;15.60;12.90;;;16.80;99.90;;;;;;5012378;28;20136;-64
2022/09/13 01:29:21;;;;;;;15.77;13.85;;;16.80;99.90;;;;;;5012954;28;20045;-66
2022/09/13 01:31:58;;;;;;;15.73;13.63;;;16.80;99.90;;;;;;5026818;28;20053;-65
2022/09/13 01:34:53;;;;;;;16.40;14.70;;;16.90;99.90;;;;;;5012907;28;20107;-63
2022/09/13 01:37:56;;;;;;;19.13;14.95;;;16.80;99.90;;;;;;4991424;28;20086;-64
2022/09/13 01:40:31;;;;;;;;;;;16.90;99.90;;;;;;4914980;29;20079;-65
2022/09/13 01:43:05;;;;;;;20.55;15.48;;;16.90;99.90;;;;;;4911974;29;19923;-64
2022/09/13 01:45:43;;;;;;;20.27;16.80;;;16.90;99.90;;;;;;4897194;29;20056;-64
2022/09/13 01:48:21;;;;;;;21.17;17.98;;;16.90;99.90;;;;;;4912815;29;20408;-65
2022/09/13 01:51:01;;;;;;;19.35;17.30;;;16.90;99.90;;;;;;4897474;29;20092;-65
2022/09/13 01:53:45;;;;;;;22.23;17.60;;;16.90;99.90;;;;;;4911508;29;20494;-65
2022/09/13 01:56:37;;;;;;;22.17;18.05;;;16.90;99.90;;;;;;4896086;29;20048;-64
2022/09/13 01:59:34;;;;;;;19.58;16.48;;;16.90;99.90;;;;;;4896180;29;20062;-66
2022/09/13 02:02:10;;;;;;;21.25;17.70;;;16.90;99.90;;;;;;4934376;29;20470;-65
2022/09/13 02:04:43;;;;;;;21.42;17.38;;;16.90;99.90;;;;;;4934844;29;20074;-65
2022/09/13 02:07:18;;;;;;;21.02;17.42;;;16.90;99.90;;;;;;4933780;29;20065;-65
2022/09/13 02:09:49;;;;;;;31.30;22.25;;;17.00;99.90;;;;;;4934837;28;20051;-63
2022/09/13 02:12:21;;;;;;;33.05;23.02;;;16.90;99.90;;;;;;4934531;29;20082;-65
2022/09/13 02:15:02;;;;;;;;;;;16.90;99.90;;;;;;4935783;29;20078;-66
2022/09/13 02:17:33;;;;;;;21.60;18.05;;;16.90;99.90;;;;;;4975530;28;19920;-66
2022/09/13 02:20:01;;;;;;;29.90;22.02;;;16.90;99.90;;;;;;5011438;28;20064;-64
2022/09/13 02:22:36;;;;;;;28.13;19.90;;;16.90;99.90;;;;;;5027230;28;20053;-65
2022/09/13 02:25:17;;;;;;;29.15;22.67;;;16.90;99.90;;;;;;5010828;28;20091;-64
2022/09/13 02:27:48;;;;;;;23.92;19.92;;;16.90;99.90;;;;;;5011863;28;20045;-64
2022/09/13 02:30:14;;;;;;;33.42;21.52;;;16.90;99.90;;;;;;5012111;28;20503;-66
2022/09/13 02:32:56;;;;;;;27.08;20.95;;;16.90;99.90;;;;;;5011133;28;20050;-65
2022/09/13 02:35:32;;;;;;;27.90;21.58;;;16.90;99.90;;;;;;5011727;28;20244;-65
2022/09/13 02:38:04;;;;;;;32.63;22.23;;;16.90;99.90;;;;;;5015522;28;20041;-65
2022/09/13 02:40:39;;;;;;;27.75;21.65;;;16.90;99.90;;;;;;5115519;27;20048;-64
2022/09/13 02:43:09;;;;;;;30.48;21.30;;;16.90;99.90;;;;;;5110226;28;20394;-66
2022/09/13 02:45:50;;;;;;;25.58;19.83;;;16.90;99.90;;;;;;5116194;27;20059;-66
2022/09/13 02:48:43;;;;;;;30.25;21.17;;;17.00;99.90;;;;;;5109772;28;20044;-63
2022/09/13 02:51:47;;;;;;;22.48;17.88;;;17.00;99.90;;;;;;5118904;27;20046;-65
2022/09/13 02:54:32;;;;;;;24.88;19.27;;;16.90;99.90;;;;;;5045789;28;20136;-64
2022/09/13 02:57:35;;;;;;;22.17;17.70;;;17.00;99.90;;;;;;5046030;28;20036;-65
2022/09/13 03:00:01;;;;;;;19.63;16.17;;;17.00;99.90;;;;;;5030748;28;20040;-64
2022/09/13 03:02:32;;;;;;;20.45;15.18;;;17.00;99.90;;;;;;5029747;28;20041;-65
2022/09/13 03:04:59;;;;;;;24.73;16.58;;;17.00;99.90;;;;;;5047585;28;20045;-63
2022/09/13 03:07:25;;;;;;;18.13;14.88;;;17.00;99.90;;;;;;5031998;28;20041;-64
2022/09/13 03:10:04;;;;;;;20.27;15.00;;;17.00;99.90;;;;;;5047675;28;20045;-64
2022/09/13 03:13:02;;;;;;;19.15;15.68;;;17.00;99.90;;;;;;5030047;28;20049;-65
2022/09/13 03:15:54;;;;;;;15.00;13.40;;;17.00;99.90;;;;;;5029514;28;20403;-65
2022/09/13 03:18:47;;;;;;;16.38;13.55;;;17.00;99.90;;;;;;4971945;28;20138;-64
2022/09/13 03:21:26;;;;;;;18.45;14.55;;;17.00;99.90;;;;;;4987288;28;20058;-64
2022/09/13 03:24:10;;;;;;;19.42;14.88;;;17.00;99.90;;;;;;4989332;28;20046;-65
2022/09/13 03:26:57;;;;;;;18.00;12.80;;;17.00;99.90;;;;;;5006279;28;20546;-64
2022/09/13 03:29:37;;;;;;;17.42;13.88;;;17.00;99.90;;;;;;4992293;28;20060;-65
2022/09/13 03:32:15;;;;;;;15.40;13.00;;;17.10;99.90;;;;;;5003798;28;20037;-66
2022/09/13 03:35:16;;;;;;;14.35;12.15;;;17.10;99.90;;;;;;5006732;28;20033;-66
2022/09/13 03:38:00;;;;;;;15.68;12.88;;;17.10;99.90;;;;;;4990651;28;20057;-66
2022/09/13 03:40:50;;;;;;;16.70;13.68;;;17.10;99.90;;;;;;5007069;28;20108;-64
2022/09/13 03:43:22;;;;;;;21.17;14.70;;;17.10;99.90;;;;;;4990707;28;20131;-63
2022/09/13 03:45:59;;;;;;;16.97;13.23;;;17.10;99.90;;;;;;5005819;28;20064;-65
2022/09/13 03:48:26;;;;;;;18.38;14.07;;;17.20;99.90;;;;;;4993571;28;20307;-65
2022/09/13 03:50:53;;;;;;;16.73;14.35;;;17.20;99.90;;;;;;4990652;28;20472;-65
2022/09/13 03:53:23;;;;;;;15.65;13.30;;;17.20;99.90;;;;;;4989819;28;20100;-65
2022/09/13 03:55:49;;;;;;;15.38;13.20;;;17.20;99.90;;;;;;5076431;28;20048;-65
2022/09/13 03:58:17;;;;;;;16.02;14.32;;;17.20;99.90;;;;;;5108888;27;20051;-65
2022/09/13 04:00:44;;;;;;;26.48;16.25;;;17.20;99.90;;;;;;5111889;27;20048;-65
2022/09/13 04:03:10;;;;;;;16.90;13.35;;;17.20;99.90;;;;;;5109201;28;20473;-63
2022/09/13 04:05:36;;;;;;;16.50;13.75;;;17.20;99.90;;;;;;5110376;28;20049;-65
2022/09/13 04:08:04;;;;;;;24.77;15.75;;;17.20;99.90;;;;;;5105676;28;20048;-65
2022/09/13 04:10:31;;;;;;;20.80;14.82;;;17.20;99.90;;;;;;5108369;28;20110;-65
2022/09/13 04:12:59;;;;;;;17.40;13.70;;;17.20;99.90;;;;;;5115695;28;20044;-65
2022/09/13 04:15:25;;;;;;;16.58;13.68;;;17.20;99.90;;;;;;5120038;28;20047;-64
2022/09/13 04:17:51;;;;;;;16.40;13.50;;;17.20;99.90;;;;;;5114867;28;20042;-64
2022/09/13 04:20:16;;;;;;;16.42;12.80;;;17.20;99.90;;;;;;5124310;28;20055;-65
2022/09/13 04:22:42;;;;;;;21.35;15.75;;;17.20;99.90;;;;;;5108758;28;20054;-64
2022/09/13 04:25:08;;;;;;;15.90;12.70;;;17.20;99.90;;;;;;5108316;28;20094;-66
2022/09/13 04:27:37;;;;;;;15.45;12.82;;;17.20;99.90;;;;;;5107804;28;20036;-65
2022/09/13 04:30:03;;;;;;;14.95;12.32;;;17.20;99.90;;;;;;5108575;28;20034;-66
2022/09/13 04:32:28;;;;;;;16.73;13.85;;;17.20;99.90;;;;;;5105877;28;20031;-65
2022/09/13 04:34:54;;;;;;;14.48;12.93;;;17.20;99.90;;;;;;5108120;28;20028;-66
2022/09/13 04:37:20;;;;;;;19.08;12.73;;;17.20;99.90;;;;;;5117409;28;20445;-64
2022/09/13 04:39:46;;;;;;;15.95;12.88;;;17.20;99.90;;;;;;5108744;28;20028;-64
2022/09/13 04:42:11;;;;;;;15.48;11.68;;;17.20;99.90;;;;;;5106614;28;20048;-66
2022/09/13 04:44:37;;;;;;;17.35;12.13;;;17.20;99.90;;;;;;5108757;28;20043;-64
2022/09/13 04:47:04;;;;;;;14.35;12.15;;;17.30;99.90;;;;;;5107373;28;20142;-65
2022/09/13 04:49:30;;;;;;;18.95;13.93;;;17.20;99.90;;;;;;5122658;28;20075;-66
2022/09/13 04:51:56;;;;;;;16.35;14.40;;;17.30;99.90;;;;;;5119993;28;20067;-65
2022/09/13 04:54:22;;;;;;;17.65;14.13;;;17.30;99.90;;;;;;5115451;28;20027;-65
2022/09/13 04:56:48;;;;;;;20.08;15.45;;;17.30;99.90;;;;;;5106014;28;20100;-64
2022/09/13 04:59:15;;;;;;;21.02;14.73;;;17.30;99.90;;;;;;5114023;28;20436;-65
2022/09/13 05:01:41;;;;;;;17.73;14.38;;;17.30;99.90;;;;;;5108019;28;20126;-64
2022/09/13 05:04:08;;;;;;;21.40;14.70;;;17.30;99.90;;;;;;5107582;28;20130;-65
2022/09/13 05:06:34;;;;;;;21.20;15.13;;;17.30;99.90;;;;;;5117920;27;20036;-65
2022/09/13 05:09:00;;;;;;;21.05;15.38;;;17.30;99.90;;;;;;5109181;28;20115;-64
2022/09/13 05:11:27;;;;;;;19.08;14.88;;;17.30;99.90;;;;;;5114834;28;20039;-66
2022/09/13 05:13:55;;;;;;;17.17;14.60;;;17.30;99.90;;;;;;5107560;28;20109;-64
2022/09/13 05:16:25;;;;;;;14.45;12.55;;;17.30;99.90;;;;;;5102023;28;20473;-64
2022/09/13 05:18:52;;;;;;;17.75;13.18;;;17.30;99.90;;;;;;5115096;27;20050;-65
2022/09/13 05:21:18;;;;;;;17.90;13.73;;;17.30;99.90;;;;;;5119980;27;20043;-65
2022/09/13 05:23:47;;;;;;;14.95;11.75;;;17.30;99.90;;;;;;5109610;28;21093;-64
2022/09/13 05:26:12;;;;;;;10.00;8.30;;;17.30;99.90;;;;;;5111295;27;20043;-66
2022/09/13 05:28:38;;;;;;;12.55;9.90;;;17.30;99.90;;;;;;5109126;27;20042;-65
2022/09/13 05:31:14;;;;;;;14.90;9.30;;;17.30;99.90;;;;;;5107354;28;20173;-66
2022/09/13 05:33:40;;;;;;;11.85;8.13;;;17.30;99.90;;;;;;5110470;27;20042;-65
2022/09/13 05:36:06;;;;;;;8.07;7.07;;;17.30;99.90;;;;;;5110969;28;20497;-65
2022/09/13 05:38:32;;;;;;;10.10;5.97;;;17.30;99.90;;;;;;5115462;27;20043;-65
2022/09/13 05:41:02;;;;;;;7.38;5.07;;;17.30;99.90;;;;;;5112856;27;20435;-64
2022/09/13 05:43:31;;;;;;;7.22;4.93;;;17.30;99.90;;;;;;5119319;27;20040;-66
2022/09/13 05:46:05;;;;;;;6.13;4.85;;;17.30;99.90;;;;;;5113090;28;20153;-65
2022/09/13 05:48:32;;;;;;;8.40;4.60;;;17.30;99.90;;;;;;5111360;27;20048;-65
2022/09/13 05:51:12;;;;;;;8.38;4.50;;;17.30;99.90;;;;;;5111777;27;20347;-66
2022/09/13 05:53:40;;;;;;;8.65;4.65;;;17.30;99.90;;;;;;5113142;27;20512;-64
2022/09/13 05:56:07;;;;;;;6.38;3.63;;;17.30;99.90;;;;;;5112906;28;20050;-65
2022/09/13 05:58:34;;;;;;;5.32;3.40;;;17.30;99.90;;;;;;5112957;28;20039;-66
2022/09/13 06:01:00;;;;;;;7.10;3.85;;;17.30;99.90;;;;;;5112902;27;20137;-66
2022/09/13 06:03:26;;;;;;;6.50;3.78;;;17.20;99.90;;;;;;5131520;27;20523;-65
2022/09/13 06:05:56;;;;;;;8.65;3.42;;;17.20;99.90;;;;;;5113145;27;20050;-66
2022/09/13 06:08:23;;;;;;;6.82;2.90;;;17.30;99.90;;;;;;5110279;28;20076;-65
2022/09/13 06:10:56;;;;;;;4.95;2.60;;;17.30;99.90;;;;;;5121486;27;20039;-67
2022/09/13 06:13:23;;;;;;;7.55;2.42;;;17.20;99.90;;;;;;5110594;27;20381;-65
2022/09/13 06:15:48;;;;;;;6.20;1.92;;;17.20;99.90;;;;;;5112035;28;20443;-66
2022/09/13 06:18:15;;;;;;;5.15;2.00;;;17.30;99.90;;;;;;5112746;27;20039;-65
2022/09/13 06:20:41;;;;;;;3.85;1.50;;;17.20;99.90;;;;;;5112145;27;20047;-63
2022/09/13 06:23:06;;;;;;;6.55;1.70;;;17.20;99.90;;;;;;5126601;27;20383;-66
2022/09/13 06:25:32;;;;;;;7.97;1.92;;;17.20;99.90;;;;;;5109495;28;20104;-66
2022/09/13 06:27:57;;;;;;;3.45;1.50;;;17.20;99.90;;;;;;5109701;28;20086;-66
2022/09/13 06:30:23;;;;;;;5.05;1.60;;;17.20;99.90;;;;;;5109067;28;20435;-65
2022/09/13 06:32:49;;;;;;;4.63;1.65;;;17.20;99.90;;;;;;5120861;27;20092;-64
2022/09/13 06:35:15;;;;;;;4.25;1.40;;;17.20;99.90;;;;;;5112249;28;20031;-66
2022/09/13 06:37:41;;;;;;;4.68;1.40;;;17.20;99.90;;;;;;5114751;27;20051;-65
2022/09/13 06:40:08;;;;;;;4.55;1.60;;;17.20;99.90;;;;;;5110142;28;20035;-64
2022/09/13 06:42:35;;;;;;;4.18;1.55;;;17.20;99.90;;;;;;5129635;27;20043;-65
2022/09/13 06:45:01;;;;;;;3.40;1.50;;;17.20;99.90;;;;;;5120896;27;20036;-66
2022/09/13 06:47:27;;;;;;;5.55;1.98;;;17.10;99.90;;;;;;5105264;28;20052;-64
2022/09/13 06:49:52;;;;;;;6.25;1.80;;;17.10;99.90;;;;;;5110854;27;20036;-65
2022/09/13 06:52:18;;;;;;;4.72;1.63;;;17.10;99.90;;;;;;5107554;28;20034;-63
2022/09/13 06:54:44;;;;;;;3.50;2.00;;;17.10;99.90;;;;;;5115550;27;20050;-65
2022/09/13 06:57:09;;;;;;;7.28;2.20;;;17.10;99.90;;;;;;5127636;27;20110;-64
2022/09/13 06:59:35;;;;;;;4.47;2.00;;;17.10;99.90;;;;;;5113846;27;20041;-65
2022/09/13 07:02:01;;;;;;;8.85;2.10;;;17.10;99.90;;;;;;5131389;27;20390;-65
2022/09/13 07:04:30;;;;;;;6.35;1.90;;;17.10;99.90;;;;;;5131402;27;20043;-63
2022/09/13 07:06:57;;;;;;;6.65;2.25;;;17.20;99.90;;;;;;5131385;27;20035;-64
2022/09/13 07:09:23;;;;;;;5.00;2.05;;;17.20;99.90;;;;;;5132674;27;20054;-64
2022/09/13 07:11:51;;;;;;;5.10;2.03;;;17.10;99.90;;;;;;5128354;27;20042;-64
2022/09/13 07:14:19;;;;;;;5.47;1.73;;;17.20;99.90;;;;;;5106434;28;20058;-65
2022/09/13 07:16:45;;;;;;;6.72;2.05;;;17.20;99.90;;;;;;5112364;27;20046;-66
2022/09/13 07:19:16;;;;;;;6.50;2.05;;;17.30;99.90;;;;;;5118442;27;20371;-66
2022/09/13 07:21:42;;;;;;;4.60;1.90;;;17.30;99.90;;;;;;5128717;27;20062;-65
2022/09/13 07:24:08;;;;;;;4.30;2.00;;;17.30;99.90;;;;;;5130604;27;20047;-63
2022/09/13 07:26:34;;;;;;;4.50;1.98;;;17.40;99.90;;;;;;5130368;27;20089;-66
2022/09/13 07:29:03;;;;;;;7.18;2.20;;;17.40;99.90;;;;;;5130919;27;20043;-64
2022/09/13 07:31:31;;;;;;;5.68;2.10;;;17.50;99.90;;;;;;5117483;27;20126;-64
2022/09/13 07:34:02;;;;;;;7.38;1.98;;;17.50;99.90;;;;;;5130255;27;20398;-64
2022/09/13 07:36:29;;;;;;;5.40;2.13;;;17.50;99.90;;;;;;5130734;27;20043;-66
2022/09/13 07:38:56;;;;;;;4.05;1.80;;;17.60;99.90;;;;;;5130395;27;20043;-66
2022/09/13 07:41:23;;;;;;;5.40;1.95;;;17.70;99.90;;;;;;5130490;27;20148;-64
2022/09/13 07:43:50;;;;;;;6.00;2.00;;;17.70;99.90;;;;;;5111715;28;20043;-65
2022/09/13 07:46:21;;;;;;;5.38;1.90;;;17.70;99.90;;;;;;5127241;27;20038;-64
2022/09/13 07:48:48;;;;;;;6.20;2.03;;;17.80;99.90;;;;;;5130335;27;20127;-66
2022/09/13 07:51:19;;;;;;;4.85;1.75;;;17.80;99.90;;;;;;5131925;27;20401;-66
2022/09/13 07:53:47;;;;;;;5.80;1.75;;;17.90;99.90;;;;;;5131617;27;20080;-64
2022/09/13 07:56:15;;;;;;;6.15;1.40;;;18.00;99.90;;;;;;5113482;27;20046;-66
2022/09/13 07:58:42;;;;;;;3.50;1.48;;;18.00;99.90;;;;;;5130567;27;20469;-64
2022/09/13 08:01:37;;;;;;;6.65;1.42;;;18.10;99.90;;;;;;5131622;27;20043;-64
2022/09/13 08:04:11;;;;;;;8.95;1.73;;;18.20;99.90;;;;;;5129944;27;20038;-64
2022/09/13 08:06:38;;;;;;;6.68;1.58;;;18.20;99.90;;;;;;5130256;27;20408;-65
2022/09/13 08:09:05;;;;;;;6.68;1.50;;;18.20;99.90;;;;;;5130135;27;20031;-65
2022/09/13 08:11:32;;;;;;;7.20;1.30;;;18.30;99.90;;;;;;5131582;27;20047;-66
2022/09/13 08:13:59;;;;;;;10.57;2.10;;;18.30;99.90;;;;;;5130148;28;20130;-64
2022/09/13 08:16:27;;;;;;;8.63;2.75;;;18.30;99.90;;;;;;5130364;28;20501;-65
2022/09/13 08:18:55;;;;;;;10.05;3.58;;;18.40;99.90;;;;;;5130382;27;20050;-64
2022/09/13 08:21:21;;;;;;;8.95;1.40;;;18.40;99.90;;;;;;5130226;28;20047;-66
2022/09/13 08:23:48;;;;;;;8.95;2.45;;;18.50;99.90;;;;;;5112875;28;20049;-65
2022/09/13 08:26:15;;;;;;;5.50;1.00;;;18.60;99.90;;;;;;5130164;27;20141;-64
2022/09/13 08:28:41;;;;;;;6.80;1.30;;;18.60;99.90;;;;;;5130363;28;20054;-65
2022/09/13 08:31:15;;;;;;;4.07;1.13;;;18.70;99.90;;;;;;5129852;27;20125;-65
2022/09/13 08:33:44;;;;;;;4.55;0.93;;;18.80;99.90;;;;;;5130300;28;20054;-65
2022/09/13 08:36:10;;;;;;;9.27;1.30;;;18.80;99.90;;;;;;5130190;28;20034;-66
2022/09/13 08:38:35;;;;;;;7.38;1.92;;;18.80;99.90;;;;;;5130020;27;20051;-64
2022/09/13 08:41:20;;;;;;;7.20;1.20;;;19.00;99.90;;;;;;5112841;28;20035;-65
2022/09/13 08:44:10;;;;;;;7.20;1.30;;;19.10;99.90;;;;;;5112632;27;20043;-66
2022/09/13 08:46:42;;;;;;;4.18;0.90;;;19.00;99.90;;;;;;5130131;28;20497;-64
2022/09/13 08:49:19;;;;;;;4.13;1.27;;;19.10;99.90;;;;;;5129886;28;20074;-64
2022/09/13 08:51:54;;;;;;;4.95;0.95;;;19.50;99.90;;;;;;5129967;27;20114;-65
2022/09/13 08:54:21;;;;;;;3.20;0.98;;;19.50;99.90;;;;;;5134049;27;20039;-65
2022/09/13 08:57:24;;;;;;;7.40;1.42;;;19.60;99.90;;;;;;5133856;27;20047;-67
2022/09/13 09:00:17;;;;;;;9.55;3.22;;;19.60;99.90;;;;;;5134091;27;20485;-66
2022/09/13 09:03:01;;;;;;;3.85;1.58;;;19.40;99.90;;;;;;5133623;27;20039;-66
2022/09/13 09:05:30;;;;;;;5.88;1.00;;;19.20;99.90;;;;;;5108866;28;20405;-64
2022/09/13 09:08:03;;;;;;;2.70;0.70;;;19.30;99.90;;;;;;5112694;28;20028;-65
2022/09/13 09:10:34;;;;;;;6.53;1.20;;;19.70;99.90;;;;;;5114969;27;20036;-66
2022/09/13 09:13:20;;;;;;;8.85;1.40;;;19.70;99.90;;;;;;5114080;28;20071;-65
2022/09/13 09:15:51;;;;;;;4.03;1.10;;;19.60;99.90;;;;;;5131566;27;20110;-66
2022/09/13 09:18:22;;;;;;;4.45;1.60;;;19.80;99.90;;;;;;5134374;27;20031;-66
2022/09/13 09:20:49;;;;;;;5.35;0.90;;;19.80;99.90;;;;;;5133580;27;20091;-65
2022/09/13 09:23:18;;;;;;;4.80;0.90;;;19.90;99.90;;;;;;5113553;27;20490;-65
2022/09/13 09:25:44;;;;;;;3.13;0.60;;;20.20;99.90;;;;;;5130560;27;20035;-64
2022/09/13 09:28:16;;;;;;;3.63;0.90;;;20.40;99.90;;;;;;5133004;27;20058;-63
2022/09/13 09:31:01;;;;;;;4.18;0.70;;;20.80;99.90;;;;;;5133133;27;20172;-65
2022/09/13 09:33:53;;;;;;;2.78;0.77;;;20.90;99.90;;;;;;5125977;27;20126;-66
2022/09/13 09:36:27;;;;;;;3.03;0.70;;;20.60;99.90;;;;;;5112186;28;20126;-64
2022/09/13 09:38:54;;;;;;;4.35;0.70;;;20.70;99.90;;;;;;5131205;27;20284;-65
2022/09/13 09:41:28;;;;;;;2.17;0.60;;;20.90;99.90;;;;;;5132976;27;20054;-64
2022/09/13 09:44:26;;;;;;;6.57;0.88;;;21.20;99.90;;;;;;5132778;27;20047;-64
2022/09/13 09:47:21;;;;;;;4.50;1.95;;;21.30;99.90;;;;;;5033878;28;20057;-66
2022/09/13 09:50:08;;;;;;;6.47;1.60;;;21.00;99.90;;;;;;5033997;28;20045;-65
2022/09/13 09:52:58;;;;;;;3.22;0.90;;;20.70;99.90;;;;;;5034351;28;20051;-66
2022/09/13 09:55:44;;;;;;;3.40;1.05;;;20.30;99.90;;;;;;5033933;28;20040;-65
2022/09/13 09:58:11;;;;;;;3.83;0.70;;;20.20;99.90;;;;;;5027752;28;20072;-64
2022/09/13 10:01:28;;;;;;;5.07;0.90;;;20.60;99.90;;;;;;5014229;28;20443;-64
2022/09/13 10:04:00;;;;;;;4.72;1.02;;;21.20;99.90;;;;;;4954424;28;20526;-65
2022/09/13 10:06:28;;;;;;;4.13;0.52;;;21.80;99.90;;;;;;4971571;28;20051;-67
2022/09/13 10:09:05;;;;;;;4.50;0.73;;;22.20;99.90;;;;;;4971811;28;20042;-66
2022/09/13 10:11:55;;;;;;;3.80;0.60;;;22.20;99.90;;;;;;4971344;28;20444;-65
2022/09/13 10:14:28;;;;;;;2.58;0.40;;;22.00;99.90;;;;;;4971680;28;20070;-65
2022/09/13 10:17:11;;;;;;;4.43;0.52;;;21.80;99.90;;;;;;4971438;28;20055;-66
2022/09/13 10:19:37;;;;;;;2.22;0.50;;;22.00;99.90;;;;;;4955318;28;20061;-66
2022/09/13 10:22:11;;;;;;;2.72;0.70;;;22.40;99.90;;;;;;4972502;28;20093;-64
2022/09/13 10:24:37;;;;;;;2.58;0.50;;;22.40;99.90;;;;;;5053411;28;20518;-64
2022/09/13 10:27:04;;;;;;;3.42;1.00;;;22.00;99.90;;;;;;5052749;28;20164;-67
2022/09/13 10:29:31;;;;;;;4.90;0.80;;;21.60;99.90;;;;;;5038860;28;20045;-66
2022/09/13 10:32:02;;;;;;;5.50;1.30;;;21.80;99.90;;;;;;5056450;28;20056;-64
2022/09/13 10:34:33;;;;;;;2.85;0.70;;;21.90;99.90;;;;;;5089988;28;20040;-64
2022/09/13 10:37:12;;;;;;;4.93;0.68;;;22.30;99.90;;;;;;5072975;28;20072;-66
2022/09/13 10:39:55;;;;;;;3.15;0.60;;;22.40;99.90;;;;;;5118838;27;20125;-64
2022/09/13 10:42:22;;;;;;;2.95;0.50;;;22.50;99.90;;;;;;5131608;27;20119;-66
2022/09/13 10:45:06;;;;;;;2.30;0.70;;;22.20;99.90;;;;;;5131783;27;20458;-65
2022/09/13 10:47:42;;;;;;;2.80;0.60;;;22.20;99.90;;;;;;5131723;27;20562;-64
2022/09/13 10:50:20;;;;;;;3.30;0.90;;;22.40;99.90;;;;;;5131788;27;20071;-63
2022/09/13 10:52:50;;;;;;;3.03;0.50;;;22.50;99.90;;;;;;5131487;27;20031;-66
2022/09/13 10:55:24;;;;;;;3.42;0.60;;;22.80;99.90;;;;;;5116089;27;20268;-65
2022/09/13 10:58:12;;;;;;;3.88;0.80;;;22.70;99.90;;;;;;5110789;28;20040;-66
2022/09/13 11:01:04;;;;;;;3.08;0.95;;;22.80;99.90;;;;;;5110617;28;20088;-66
2022/09/13 11:03:56;;;;;;;4.95;0.82;;;22.80;99.90;;;;;;5129086;27;20039;-65
2022/09/13 11:06:44;;;;;;;4.57;0.70;;;22.40;99.90;;;;;;5131176;27;20085;-64
2022/09/13 11:09:22;;;;;;;4.85;0.50;;;22.00;99.90;;;;;;5131209;27;20631;-65
2022/09/13 11:12:06;;;;;;;4.45;0.75;;;21.90;99.90;;;;;;5130628;27;20051;-66
2022/09/13 11:14:56;;;;;;;3.60;0.52;;;21.70;99.90;;;;;;5109423;28;20396;-64
2022/09/13 11:17:35;;;;;;;2.95;0.60;;;21.60;99.90;;;;;;5130021;27;20054;-64
2022/09/13 11:20:26;;;;;;;5.50;0.70;;;21.80;99.90;;;;;;5113606;27;20054;-63
2022/09/13 11:23:28;;;;;;;2.35;0.50;;;22.00;99.90;;;;;;5113821;27;20124;-65
2022/09/13 11:26:23;;;;;;;5.43;0.90;;;22.40;99.90;;;;;;5113004;27;20052;-65
2022/09/13 11:29:07;;;;;;;5.05;0.70;;;22.50;99.60;;;;;;5031812;28;20052;-66
2022/09/13 11:31:51;;;;;;;4.60;0.88;;;22.40;99.30;;;;;;5031912;28;20067;-64
2022/09/13 11:34:43;;;;;;;4.78;0.70;;;22.50;99.20;;;;;;5032176;28;20408;-64
2022/09/13 11:37:29;;;;;;;3.28;0.75;;;22.50;98.60;;;;;;5032359;28;20553;-66
2022/09/13 11:40:20;;;;;;;4.90;0.80;;;22.40;99.50;;;;;;5031300;28;20048;-66
2022/09/13 11:42:59;;;;;;;5.60;0.50;;;22.40;98.80;;;;;;4953332;28;20057;-64
2022/09/13 11:45:29;;;;;;;2.17;0.60;;;22.30;98.90;;;;;;4953576;28;20332;-67
2022/09/13 11:48:08;;;;;;;2.28;0.50;;;22.20;99.10;;;;;;4969440;28;20078;-64
2022/09/13 11:50:48;;;;;;;3.92;0.80;;;22.30;99.20;;;;;;4936919;28;20582;-67
2022/09/13 11:53:28;;;;;;;3.53;0.50;;;22.30;98.60;;;;;;4953598;28;20058;-66
2022/09/13 11:56:00;;;;;;;2.20;0.50;;;22.30;98.20;;;;;;4937786;28;20047;-66
2022/09/13 11:58:43;;;;;;;4.35;0.60;;;22.10;97.70;;;;;;4969725;28;20046;-65
2022/09/13 12:01:15;;;;;;;2.95;0.63;;;22.20;98.10;;;;;;4953739;28;20129;-64
2022/09/13 12:03:49;;;;;;;3.80;0.70;;;22.20;98.40;;;;;;4953562;28;20043;-65
2022/09/13 12:06:22;;;;;;;4.75;0.70;;;22.20;97.70;;;;;;5002841;28;20127;-66
2022/09/13 12:08:53;;;;;;;3.63;0.77;;;22.20;98.30;;;;;;5046299;28;20376;-66
2022/09/13 12:11:30;;;;;;;4.53;0.80;;;22.20;98.50;;;;;;5031827;28;20384;-65
2022/09/13 12:13:59;;;;;;;5.20;0.70;;;22.00;98.60;;;;;;5031252;28;20123;-66
2022/09/13 12:16:34;;;;;;;4.85;0.68;;;21.80;98.70;;;;;;5048058;28;20488;-65
2022/09/13 12:19:10;;;;;;;3.83;0.80;;;21.80;99.40;;;;;;5040260;28;20554;-65
2022/09/13 12:21:39;;;;;;;7.80;1.88;;;21.70;99.40;;;;;;5109733;28;20054;-65
2022/09/13 12:24:14;;;;;;;6.13;0.93;;;21.70;99.30;;;;;;5124486;28;20042;-65
2022/09/13 12:26:51;;;;;;;3.05;0.70;;;21.60;99.10;;;;;;5113193;27;20043;-65
2022/09/13 12:29:26;;;;;;;3.03;0.73;;;21.70;99.90;;;;;;5134458;27;20043;-64
2022/09/13 12:31:58;;;;;;;4.72;0.70;;;21.70;99.30;;;;;;5134271;27;20108;-66
2022/09/13 12:35:06;;;;;;;6.43;0.90;;;21.70;99.00;;;;;;5134304;27;20047;-65
2022/09/13 12:37:40;;;;;;;5.40;0.73;;;21.80;99.00;;;;;;5134272;27;20110;-67
2022/09/13 12:40:22;;;;;;;3.80;0.80;;;21.70;98.90;;;;;;5134151;27;20175;-65
2022/09/13 12:43:06;;;;;;;5.95;0.80;;;21.70;99.20;;;;;;5133882;27;20042;-66
2022/09/13 12:45:54;;;;;;;4.13;0.80;;;21.50;96.50;;;;;;5124253;27;20035;-66
2022/09/13 12:48:36;;;;;;;3.63;0.73;;;21.50;98.10;;;;;;5103022;28;20051;-64
2022/09/13 12:51:44;;;;;;;3.05;0.80;;;21.50;98.80;;;;;;5131504;27;20039;-65
2022/09/13 12:54:57;;;;;;;5.30;0.70;;;21.40;98.30;;;;;;5014778;28;20050;-63
2022/09/13 12:57:30;;;;;;;2.13;0.50;;;21.40;98.20;;;;;;4956683;28;20058;-66
2022/09/13 12:59:56;;;;;;;3.55;0.55;;;21.40;98.60;;;;;;4956293;28;20058;-66
2022/09/13 13:02:24;;;;;;;5.10;0.73;;;21.30;98.40;;;;;;4956683;28;20046;-66
2022/09/13 13:04:54;;;;;;;3.88;0.63;;;21.30;98.60;;;;;;4956293;28;20958;-64
2022/09/13 13:07:22;;;;;;;5.15;0.52;;;21.20;98.40;;;;;;4956483;28;20182;-64
2022/09/13 13:09:53;;;;;;;3.03;0.50;;;21.10;98.00;;;;;;4972619;28;20046;-65
2022/09/13 13:12:39;;;;;;;2.55;0.60;;;21.10;98.50;;;;;;4956282;28;20397;-66
2022/09/13 13:15:26;;;;;;;4.25;0.77;;;21.10;97.90;;;;;;4955910;28;20233;-65